Change the Weather History Date:

Friday, December 21, 2012

  Actual Average (KGSO) Record (KGSO)
Temperature  
Mean Temperature 40 °F 40 °F  
Max Temperature 46 °F 49 °F 71 °F (2013)
Min Temperature 35 °F 31 °F 6 °F (1930)
Degree Days  
Heating Degree Days 24 25  
Month to date heating degree days 478  
Since 1 July heating degree days 1158  
Cooling Degree Days 0 0  
Month to date cooling degree days 0  
Year to date cooling degree days 1483  
Moisture  
Dew Point 23 °F    
Average Humidity 52    
Maximum Humidity 100    
Minimum Humidity 39    
Precipitation  
Precipitation 0.00 in 0.10 in 1.19 in (1951)
Month to date precipitation 2.04  
Year to date precipitation 41.26  
Snow  
Snow 0.00 in 0.00 in 0.10 in (1981)
Month to date snowfall 0.3  
Since 1 July snowfall 0.4  
Snow Depth -    
Sea Level Pressure  
Sea Level Pressure 29.66 in    
Wind  
Wind Speed 8 mph (West)    
Max Wind Speed 16 mph    
Max Gust Speed 26 mph    
Visibility 10 miles    
Events      
T = Trace of Precipitation, MM = Missing Value Source: NWS Daily Summary

Daily Weather History Graph

Daily Weather History Graph

Search for Another Location

Airport or City:

Trip Planner

Search our weather history database for the weather conditions in past years. The results will help you decide how hot, cold, wet, or windy it might be!

Date:

Astronomy

Dec. 21, 2012 Rise Set
Actual Time 7:28 AM EST 5:08 PM EST
Civil Twilight 6:59 AM EST 5:37 PM EST
Nautical Twilight 6:27 AM EST 6:09 PM EST
Astronomical Twilight 5:55 AM EST 6:40 PM EST
Moon 12:48 PM EST (12/21) 1:20 AM EST (12/21)
Length of Visible Light 10h 37m
Length of Day
9h 39m
Waxing Gibbous, 64% of the Moon is Illuminated
Dec 21
Waxing Gibbous
Dec 28
Full
Jan 4
Last Quarter
Jan 11
New
Jan 18
First Quarter

Hourly Weather History & Observations

Time (EST) Temp. Windchill Dew Point Humidity Pressure Visibility Wind Dir Wind Speed Gust Speed Precip Events Conditions
12:15 AM 46.4 °F 43.5 °F 46.4 °F 100% 29.50 in 10.0 mi WSW 5.8 mph - N/A   Overcast
12:35 AM 46.4 °F 42.9 °F 46.4 °F 100% 29.51 in 10.0 mi West 6.9 mph - N/A   Light Drizzle
12:55 AM 46.4 °F 41.9 °F 37.4 °F 71% 29.51 in 10.0 mi WNW 9.2 mph - N/A   Overcast
1:15 AM 46.4 °F 42.9 °F 35.6 °F 66% 29.53 in 10.0 mi West 6.9 mph - N/A   Overcast
1:35 AM 44.6 °F 42.2 °F 32.0 °F 61% 29.54 in 10.0 mi West 4.6 mph - N/A   Overcast
1:55 AM 44.6 °F 41.4 °F 30.2 °F 57% 29.54 in 10.0 mi West 5.8 mph - N/A   Overcast
2:15 AM 44.6 °F 39.2 °F 28.4 °F 53% 29.54 in 10.0 mi WNW 10.4 mph 17.3 mph N/A   Overcast
2:35 AM 44.6 °F 41.4 °F 26.6 °F 49% 29.56 in 10.0 mi West 5.8 mph 16.1 mph N/A   Overcast
2:55 AM 42.8 °F 38.0 °F 28.4 °F 57% 29.56 in 10.0 mi West 8.1 mph 17.3 mph N/A   Overcast
3:15 AM 42.8 °F 38.6 °F 28.4 °F 57% 29.57 in 10.0 mi West 6.9 mph - N/A   Mostly Cloudy
3:35 AM 42.8 °F 37.5 °F 26.6 °F 53% 29.56 in 10.0 mi West 9.2 mph 21.9 mph N/A   Scattered Clouds
3:55 AM 42.8 °F 40.1 °F 26.6 °F 53% 29.57 in 10.0 mi West 4.6 mph 17.3 mph N/A   Mostly Cloudy
4:15 AM 42.8 °F 36.6 °F 26.6 °F 53% 29.56 in 10.0 mi West 11.5 mph 16.1 mph N/A   Overcast
4:35 AM 42.8 °F 38.0 °F 26.6 °F 53% 29.57 in 10.0 mi West 8.1 mph 19.6 mph N/A   Overcast
4:55 AM 42.8 °F 39.3 °F 26.6 °F 53% 29.57 in 10.0 mi West 5.8 mph 18.4 mph N/A   Overcast
5:15 AM 42.8 °F 39.3 °F 24.8 °F 49% 29.57 in 10.0 mi West 5.8 mph 16.1 mph N/A   Overcast
5:35 AM 42.8 °F 39.3 °F 24.8 °F 49% 29.57 in 10.0 mi West 5.8 mph 19.6 mph N/A   Overcast
5:55 AM 41.0 °F 35.8 °F 26.6 °F 57% 29.57 in 10.0 mi WSW 8.1 mph - N/A   Overcast
6:15 AM 41.0 °F 38.0 °F 26.6 °F 57% 29.56 in 10.0 mi WSW 4.6 mph 17.3 mph N/A   Overcast
6:35 AM 41.0 °F 38.0 °F 28.4 °F 61% 29.57 in 10.0 mi WSW 4.6 mph - N/A   Overcast
6:55 AM 39.2 °F 33.6 °F 28.4 °F 65% 29.57 in 10.0 mi West 8.1 mph - N/A   Overcast
7:15 AM 39.2 °F 34.2 °F 28.4 °F 65% 29.58 in 10.0 mi WSW 6.9 mph 16.1 mph N/A   Overcast
7:35 AM 39.2 °F 33.6 °F 26.6 °F 61% 29.58 in 10.0 mi West 8.1 mph 17.3 mph N/A   Overcast
7:55 AM 39.2 °F 33.0 °F 26.6 °F 61% 29.59 in 10.0 mi West 9.2 mph 16.1 mph N/A   Overcast
8:15 AM 39.2 °F 35.0 °F 24.8 °F 56% 29.59 in 10.0 mi West 5.8 mph - N/A   Overcast
8:35 AM 39.2 °F 34.2 °F 24.8 °F 56% 29.60 in 10.0 mi West 6.9 mph - N/A   Overcast
8:55 AM 39.2 °F 33.6 °F 23.0 °F 52% 29.61 in 10.0 mi WSW 8.1 mph 20.7 mph N/A   Overcast
9:15 AM 39.2 °F 33.0 °F 23.0 °F 52% 29.62 in 10.0 mi West 9.2 mph - N/A   Overcast
9:35 AM 39.2 °F 33.0 °F 24.8 °F 56% 29.63 in 10.0 mi West 9.2 mph 16.1 mph N/A   Overcast
9:55 AM 39.2 °F 32.5 °F 23.0 °F 52% 29.64 in 10.0 mi West 10.4 mph 16.1 mph N/A   Overcast
10:15 AM 41.0 °F 37.1 °F 23.0 °F 49% 29.64 in 10.0 mi West 5.8 mph 21.9 mph N/A   Overcast
10:35 AM 41.0 °F 34.3 °F 21.2 °F 45% 29.65 in 10.0 mi West 11.5 mph 21.9 mph N/A   Overcast
10:55 AM 41.0 °F 39.0 °F 23.0 °F 49% 29.65 in 10.0 mi West 3.5 mph - N/A   Overcast
11:15 AM 41.0 °F 35.8 °F 21.2 °F 45% 29.65 in 10.0 mi WSW 8.1 mph - N/A   Overcast
11:35 AM 42.8 °F 36.6 °F 21.2 °F 42% 29.64 in 10.0 mi WSW 11.5 mph 17.3 mph N/A   Overcast
11:55 AM 42.8 °F 35.8 °F 21.2 °F 42% 29.65 in 10.0 mi WNW 13.8 mph 20.7 mph N/A   Overcast
12:15 PM 41.0 °F 33.5 °F 19.4 °F 42% 29.65 in 10.0 mi West 13.8 mph 23.0 mph N/A   Overcast
12:35 PM 42.8 °F 37.5 °F 19.4 °F 39% 29.65 in 10.0 mi WSW 9.2 mph 23.0 mph N/A   Mostly Cloudy
12:55 PM 42.8 °F 37.5 °F 19.4 °F 39% 29.66 in 10.0 mi West 9.2 mph 23.0 mph N/A   Overcast
1:15 PM 41.0 °F 35.8 °F 17.6 °F 39% 29.65 in 10.0 mi West 8.1 mph 21.9 mph N/A   Mostly Cloudy
1:35 PM 41.0 °F 33.5 °F 19.4 °F 42% 29.66 in 10.0 mi West 13.8 mph 24.2 mph N/A   Mostly Cloudy
1:55 PM 42.8 °F 36.2 °F 19.4 °F 39% 29.66 in 10.0 mi West 12.7 mph 19.6 mph N/A   Mostly Cloudy
2:15 PM 41.0 °F 34.3 °F 19.4 °F 42% 29.67 in 10.0 mi West 11.5 mph 21.9 mph N/A   Overcast
2:35 PM 42.8 °F 36.6 °F 19.4 °F 39% 29.67 in 10.0 mi West 11.5 mph 24.2 mph N/A   Overcast
2:55 PM 41.0 °F 35.8 °F 19.4 °F 42% 29.67 in 10.0 mi WNW 8.1 mph 23.0 mph N/A   Overcast
3:15 PM 41.0 °F 34.3 °F 17.6 °F 39% 29.68 in 10.0 mi West 11.5 mph 26.5 mph N/A   Overcast
3:35 PM 39.2 °F 32.0 °F 17.6 °F 42% 29.69 in 10.0 mi West 11.5 mph 23.0 mph N/A   Overcast
3:55 PM 39.2 °F 32.5 °F 19.4 °F 45% 29.70 in 10.0 mi WNW 10.4 mph 23.0 mph N/A   Overcast
4:15 PM 39.2 °F 32.5 °F 19.4 °F 45% 29.71 in 10.0 mi WNW 10.4 mph 20.7 mph N/A   Overcast
4:35 PM 37.4 °F 30.8 °F 19.4 °F 48% 29.71 in 10.0 mi West 9.2 mph 21.9 mph N/A   Overcast
4:55 PM 37.4 °F 31.4 °F 19.4 °F 48% 29.72 in 10.0 mi West 8.1 mph 16.1 mph N/A   Overcast
5:15 PM 37.4 °F 31.4 °F 19.4 °F 48% 29.73 in 10.0 mi West 8.1 mph 17.3 mph N/A   Overcast
5:35 PM 37.4 °F 32.1 °F 19.4 °F 48% 29.75 in 10.0 mi West 6.9 mph - N/A   Overcast
5:55 PM 37.4 °F 30.8 °F 21.2 °F 52% 29.75 in 10.0 mi WSW 9.2 mph 16.1 mph N/A   Overcast
6:15 PM 37.4 °F 31.4 °F 21.2 °F 52% 29.76 in 10.0 mi WSW 8.1 mph - N/A   Overcast
6:35 PM 37.4 °F 30.3 °F 21.2 °F 52% 29.76 in 10.0 mi West 10.4 mph 19.6 mph N/A   Overcast
6:55 PM 37.4 °F 32.1 °F 21.2 °F 52% 29.77 in 10.0 mi West 6.9 mph 16.1 mph N/A   Overcast
7:15 PM 37.4 °F 32.1 °F 21.2 °F 52% 29.77 in 10.0 mi West 6.9 mph - N/A   Overcast
7:35 PM 37.4 °F 34.9 °F 21.2 °F 52% 29.78 in 10.0 mi West 3.5 mph - N/A   Overcast
7:55 PM 37.4 °F 32.1 °F 21.2 °F 52% 29.78 in 10.0 mi WNW 6.9 mph - N/A   Overcast
8:15 PM 37.4 °F 33.8 °F 21.2 °F 52% 29.78 in 10.0 mi WSW 4.6 mph - N/A   Overcast
8:35 PM 35.6 °F 31.7 °F 21.2 °F 56% 29.78 in 10.0 mi West 4.6 mph - N/A   Overcast
8:55 PM 35.6 °F 30.7 °F 21.2 °F 56% 29.78 in 10.0 mi West 5.8 mph - N/A   Overcast
9:15 PM 37.4 °F 33.8 °F 19.4 °F 48% 29.79 in 10.0 mi WSW 4.6 mph - N/A   Overcast
9:35 PM 37.4 °F 30.8 °F 17.6 °F 45% 29.79 in 10.0 mi West 9.2 mph 16.1 mph N/A   Overcast
9:55 PM 37.4 °F 30.3 °F 17.6 °F 45% 29.80 in 10.0 mi WNW 10.4 mph 18.4 mph N/A   Overcast
10:15 PM 37.4 °F 28.9 °F 17.6 °F 45% 29.80 in 10.0 mi WNW 13.8 mph 21.9 mph N/A   Overcast
10:35 PM 37.4 °F 30.8 °F 17.6 °F 45% 29.81 in 10.0 mi WNW 9.2 mph 20.7 mph N/A   Overcast
10:55 PM 37.4 °F 29.8 °F 17.6 °F 45% 29.81 in 10.0 mi WNW 11.5 mph 25.3 mph N/A   Mostly Cloudy
11:15 PM 37.4 °F 28.9 °F 17.6 °F 45% 29.82 in 10.0 mi WNW 13.8 mph 18.4 mph N/A   Mostly Cloudy
11:35 PM 37.4 °F 28.2 °F 17.6 °F 45% 29.82 in 10.0 mi NW 16.1 mph 25.3 mph N/A   Mostly Cloudy
11:55 PM 37.4 °F 30.8 °F 17.6 °F 45% 29.82 in 10.0 mi NW 9.2 mph - N/A   Mostly Cloudy